sensor_id;sensor_type;location;lat;lon;timestamp;P1;durP1;ratioP1;P2;durP2;ratioP2
37425;SDS011;23285;50.180;7.036;2022-08-21T00:01:31;6.20;;;3.30;;
37425;SDS011;23285;50.180;7.036;2022-08-21T00:04:16;5.83;;;3.40;;
37425;SDS011;23285;50.180;7.036;2022-08-21T00:07:02;6.80;;;3.73;;
37425;SDS011;23285;50.180;7.036;2022-08-21T00:09:47;7.83;;;4.10;;
37425;SDS011;23285;50.180;7.036;2022-08-21T00:12:32;5.40;;;3.67;;
37425;SDS011;23285;50.180;7.036;2022-08-21T00:15:20;6.63;;;3.77;;
37425;SDS011;23285;50.180;7.036;2022-08-21T00:18:10;7.97;;;3.73;;
37425;SDS011;23285;50.180;7.036;2022-08-21T00:20:56;5.37;;;4.20;;
37425;SDS011;23285;50.180;7.036;2022-08-21T00:23:41;7.03;;;3.90;;
37425;SDS011;23285;50.180;7.036;2022-08-21T00:26:26;6.50;;;3.23;;
37425;SDS011;23285;50.180;7.036;2022-08-21T00:29:11;6.03;;;3.43;;
37425;SDS011;23285;50.180;7.036;2022-08-21T00:31:57;4.83;;;3.30;;
37425;SDS011;23285;50.180;7.036;2022-08-21T00:34:43;7.40;;;3.80;;
37425;SDS011;23285;50.180;7.036;2022-08-21T00:37:28;5.83;;;3.40;;
37425;SDS011;23285;50.180;7.036;2022-08-21T00:40:16;6.27;;;3.83;;
37425;SDS011;23285;50.180;7.036;2022-08-21T00:43:09;7.07;;;3.67;;
37425;SDS011;23285;50.180;7.036;2022-08-21T00:45:56;4.80;;;3.30;;
37425;SDS011;23285;50.180;7.036;2022-08-21T00:48:42;5.70;;;3.07;;
37425;SDS011;23285;50.180;7.036;2022-08-21T00:52:00;6.57;;;3.23;;
37425;SDS011;23285;50.180;7.036;2022-08-21T00:54:40;5.30;;;3.27;;
37425;SDS011;23285;50.180;7.036;2022-08-21T00:57:30;8.27;;;3.40;;
37425;SDS011;23285;50.180;7.036;2022-08-21T01:00:20;6.73;;;3.63;;
37425;SDS011;23285;50.180;7.036;2022-08-21T01:03:13;7.67;;;3.37;;
37425;SDS011;23285;50.180;7.036;2022-08-21T01:06:00;6.53;;;3.50;;
37425;SDS011;23285;50.180;7.036;2022-08-21T01:08:45;4.07;;;3.00;;
37425;SDS011;23285;50.180;7.036;2022-08-21T01:11:31;4.90;;;3.60;;
37425;SDS011;23285;50.180;7.036;2022-08-21T01:14:16;5.13;;;3.53;;
37425;SDS011;23285;50.180;7.036;2022-08-21T01:17:03;5.50;;;3.47;;
37425;SDS011;23285;50.180;7.036;2022-08-21T01:19:49;7.00;;;3.27;;
37425;SDS011;23285;50.180;7.036;2022-08-21T01:22:35;6.73;;;3.30;;
37425;SDS011;23285;50.180;7.036;2022-08-21T01:25:20;6.67;;;3.60;;
37425;SDS011;23285;50.180;7.036;2022-08-21T01:28:09;7.07;;;3.53;;
37425;SDS011;23285;50.180;7.036;2022-08-21T01:30:57;5.97;;;3.10;;
37425;SDS011;23285;50.180;7.036;2022-08-21T01:33:43;5.17;;;3.27;;
37425;SDS011;23285;50.180;7.036;2022-08-21T01:36:29;4.33;;;3.23;;
37425;SDS011;23285;50.180;7.036;2022-08-21T01:39:15;5.67;;;3.73;;
37425;SDS011;23285;50.180;7.036;2022-08-21T01:42:00;9.47;;;3.80;;
37425;SDS011;23285;50.180;7.036;2022-08-21T01:44:46;5.63;;;3.40;;
37425;SDS011;23285;50.180;7.036;2022-08-21T01:47:31;5.13;;;3.43;;
37425;SDS011;23285;50.180;7.036;2022-08-21T01:50:17;7.20;;;3.27;;
37425;SDS011;23285;50.180;7.036;2022-08-21T01:53:04;6.03;;;4.00;;
37425;SDS011;23285;50.180;7.036;2022-08-21T01:55:49;5.43;;;3.50;;
37425;SDS011;23285;50.180;7.036;2022-08-21T01:58:34;8.27;;;3.37;;
37425;SDS011;23285;50.180;7.036;2022-08-21T02:01:19;6.30;;;3.50;;
37425;SDS011;23285;50.180;7.036;2022-08-21T02:04:05;4.90;;;2.90;;
37425;SDS011;23285;50.180;7.036;2022-08-21T02:06:51;7.23;;;3.10;;
37425;SDS011;23285;50.180;7.036;2022-08-21T02:09:36;5.87;;;3.67;;
37425;SDS011;23285;50.180;7.036;2022-08-21T02:12:21;8.00;;;3.53;;
37425;SDS011;23285;50.180;7.036;2022-08-21T02:15:07;6.03;;;3.73;;
37425;SDS011;23285;50.180;7.036;2022-08-21T02:17:56;5.23;;;3.47;;
37425;SDS011;23285;50.180;7.036;2022-08-21T02:20:49;6.00;;;3.17;;
37425;SDS011;23285;50.180;7.036;2022-08-21T02:23:35;4.33;;;2.97;;
37425;SDS011;23285;50.180;7.036;2022-08-21T02:26:20;5.37;;;3.17;;
37425;SDS011;23285;50.180;7.036;2022-08-21T02:29:05;8.53;;;3.60;;
37425;SDS011;23285;50.180;7.036;2022-08-21T02:31:50;7.03;;;3.47;;
37425;SDS011;23285;50.180;7.036;2022-08-21T02:34:36;7.63;;;3.83;;
37425;SDS011;23285;50.180;7.036;2022-08-21T02:37:21;7.40;;;3.70;;
37425;SDS011;23285;50.180;7.036;2022-08-21T02:40:07;5.07;;;3.20;;
37425;SDS011;23285;50.180;7.036;2022-08-21T02:42:56;4.77;;;3.07;;
37425;SDS011;23285;50.180;7.036;2022-08-21T02:45:42;5.47;;;3.20;;
37425;SDS011;23285;50.180;7.036;2022-08-21T02:48:29;6.80;;;3.47;;
37425;SDS011;23285;50.180;7.036;2022-08-21T02:51:16;4.60;;;2.87;;
37425;SDS011;23285;50.180;7.036;2022-08-21T02:54:03;5.87;;;3.20;;
37425;SDS011;23285;50.180;7.036;2022-08-21T02:56:48;5.50;;;3.10;;
37425;SDS011;23285;50.180;7.036;2022-08-21T02:59:33;5.63;;;3.03;;
37425;SDS011;23285;50.180;7.036;2022-08-21T03:02:18;5.83;;;3.27;;
37425;SDS011;23285;50.180;7.036;2022-08-21T03:05:06;8.30;;;3.60;;
37425;SDS011;23285;50.180;7.036;2022-08-21T03:07:52;5.27;;;3.17;;
37425;SDS011;23285;50.180;7.036;2022-08-21T03:10:38;7.10;;;3.20;;
37425;SDS011;23285;50.180;7.036;2022-08-21T03:13:28;7.63;;;3.20;;
37425;SDS011;23285;50.180;7.036;2022-08-21T03:16:13;7.33;;;3.27;;
37425;SDS011;23285;50.180;7.036;2022-08-21T03:18:59;4.47;;;2.87;;
37425;SDS011;23285;50.180;7.036;2022-08-21T03:21:44;6.87;;;3.03;;
37425;SDS011;23285;50.180;7.036;2022-08-21T03:24:29;4.63;;;2.90;;
37425;SDS011;23285;50.180;7.036;2022-08-21T03:27:14;4.30;;;2.63;;
37425;SDS011;23285;50.180;7.036;2022-08-21T03:30:00;5.07;;;3.10;;
37425;SDS011;23285;50.180;7.036;2022-08-21T03:32:46;5.27;;;3.00;;
37425;SDS011;23285;50.180;7.036;2022-08-21T03:35:32;4.97;;;3.23;;
37425;SDS011;23285;50.180;7.036;2022-08-21T03:38:17;4.63;;;2.83;;
37425;SDS011;23285;50.180;7.036;2022-08-21T03:41:04;4.27;;;2.93;;
37425;SDS011;23285;50.180;7.036;2022-08-21T03:43:50;5.40;;;3.17;;
37425;SDS011;23285;50.180;7.036;2022-08-21T03:46:35;5.00;;;3.10;;
37425;SDS011;23285;50.180;7.036;2022-08-21T03:49:20;6.50;;;3.23;;
37425;SDS011;23285;50.180;7.036;2022-08-21T03:52:06;4.70;;;2.90;;
37425;SDS011;23285;50.180;7.036;2022-08-21T03:54:51;5.13;;;3.10;;
37425;SDS011;23285;50.180;7.036;2022-08-21T03:57:36;4.63;;;2.93;;
37425;SDS011;23285;50.180;7.036;2022-08-21T04:00:22;4.00;;;2.80;;
37425;SDS011;23285;50.180;7.036;2022-08-21T04:03:08;3.70;;;2.80;;
37425;SDS011;23285;50.180;7.036;2022-08-21T04:05:53;5.83;;;3.27;;
37425;SDS011;23285;50.180;7.036;2022-08-21T04:08:39;6.03;;;2.90;;
37425;SDS011;23285;50.180;7.036;2022-08-21T04:11:27;6.47;;;3.03;;
37425;SDS011;23285;50.180;7.036;2022-08-21T04:14:12;5.17;;;2.80;;
37425;SDS011;23285;50.180;7.036;2022-08-21T04:16:58;4.33;;;2.63;;
37425;SDS011;23285;50.180;7.036;2022-08-21T04:19:43;6.80;;;3.47;;
37425;SDS011;23285;50.180;7.036;2022-08-21T04:22:29;5.27;;;2.90;;
37425;SDS011;23285;50.180;7.036;2022-08-21T04:25:15;5.27;;;3.00;;
37425;SDS011;23285;50.180;7.036;2022-08-21T04:28:02;5.50;;;2.83;;
37425;SDS011;23285;50.180;7.036;2022-08-21T04:30:47;3.37;;;2.87;;
37425;SDS011;23285;50.180;7.036;2022-08-21T04:33:33;4.47;;;3.03;;
37425;SDS011;23285;50.180;7.036;2022-08-21T04:36:18;4.40;;;2.63;;
37425;SDS011;23285;50.180;7.036;2022-08-21T04:39:04;5.23;;;3.30;;
37425;SDS011;23285;50.180;7.036;2022-08-21T04:41:50;6.20;;;3.10;;
37425;SDS011;23285;50.180;7.036;2022-08-21T04:44:35;6.13;;;2.93;;
37425;SDS011;23285;50.180;7.036;2022-08-21T04:47:20;4.90;;;3.13;;
37425;SDS011;23285;50.180;7.036;2022-08-21T04:50:05;6.17;;;2.73;;
37425;SDS011;23285;50.180;7.036;2022-08-21T04:52:51;4.27;;;2.70;;
37425;SDS011;23285;50.180;7.036;2022-08-21T04:55:38;5.60;;;3.27;;
37425;SDS011;23285;50.180;7.036;2022-08-21T04:58:23;4.53;;;3.07;;
37425;SDS011;23285;50.180;7.036;2022-08-21T05:01:13;4.00;;;2.63;;
37425;SDS011;23285;50.180;7.036;2022-08-21T05:04:02;3.47;;;2.53;;
37425;SDS011;23285;50.180;7.036;2022-08-21T05:06:50;5.07;;;2.97;;
37425;SDS011;23285;50.180;7.036;2022-08-21T05:09:35;7.57;;;3.07;;
37425;SDS011;23285;50.180;7.036;2022-08-21T05:12:22;6.27;;;3.03;;
37425;SDS011;23285;50.180;7.036;2022-08-21T05:15:07;6.57;;;3.57;;
37425;SDS011;23285;50.180;7.036;2022-08-21T05:17:52;6.50;;;3.10;;
37425;SDS011;23285;50.180;7.036;2022-08-21T05:20:38;4.70;;;2.93;;
37425;SDS011;23285;50.180;7.036;2022-08-21T05:23:23;5.20;;;3.10;;
37425;SDS011;23285;50.180;7.036;2022-08-21T05:26:09;6.40;;;3.17;;
37425;SDS011;23285;50.180;7.036;2022-08-21T05:28:54;4.90;;;2.83;;
37425;SDS011;23285;50.180;7.036;2022-08-21T05:31:39;3.70;;;2.83;;
37425;SDS011;23285;50.180;7.036;2022-08-21T05:34:25;7.13;;;3.43;;
37425;SDS011;23285;50.180;7.036;2022-08-21T05:37:10;4.13;;;2.93;;
37425;SDS011;23285;50.180;7.036;2022-08-21T05:39:56;5.00;;;2.83;;
37425;SDS011;23285;50.180;7.036;2022-08-21T05:42:41;6.77;;;3.20;;
37425;SDS011;23285;50.180;7.036;2022-08-21T05:45:28;4.10;;;2.80;;
37425;SDS011;23285;50.180;7.036;2022-08-21T05:51:04;6.43;;;3.40;;
37425;SDS011;23285;50.180;7.036;2022-08-21T05:53:50;5.97;;;3.17;;
37425;SDS011;23285;50.180;7.036;2022-08-21T05:56:35;5.10;;;3.00;;
37425;SDS011;23285;50.180;7.036;2022-08-21T05:59:20;5.67;;;3.47;;
37425;SDS011;23285;50.180;7.036;2022-08-21T06:02:05;5.13;;;3.50;;
37425;SDS011;23285;50.180;7.036;2022-08-21T06:04:52;8.73;;;3.80;;
37425;SDS011;23285;50.180;7.036;2022-08-21T06:07:37;8.07;;;4.27;;
37425;SDS011;23285;50.180;7.036;2022-08-21T06:10:22;6.87;;;3.83;;
37425;SDS011;23285;50.180;7.036;2022-08-21T06:13:07;6.83;;;3.67;;
37425;SDS011;23285;50.180;7.036;2022-08-21T06:16:10;9.10;;;4.03;;
37425;SDS011;23285;50.180;7.036;2022-08-21T06:18:57;7.50;;;3.93;;
37425;SDS011;23285;50.180;7.036;2022-08-21T06:21:42;5.47;;;3.90;;
37425;SDS011;23285;50.180;7.036;2022-08-21T06:24:27;10.83;;;4.57;;
37425;SDS011;23285;50.180;7.036;2022-08-21T06:27:13;7.73;;;4.07;;
37425;SDS011;23285;50.180;7.036;2022-08-21T06:29:59;7.93;;;3.73;;
37425;SDS011;23285;50.180;7.036;2022-08-21T06:32:44;14.53;;;4.40;;
37425;SDS011;23285;50.180;7.036;2022-08-21T06:35:29;8.77;;;4.37;;
37425;SDS011;23285;50.180;7.036;2022-08-21T06:38:15;19.87;;;5.70;;
37425;SDS011;23285;50.180;7.036;2022-08-21T06:41:00;7.77;;;4.63;;
37425;SDS011;23285;50.180;7.036;2022-08-21T06:43:46;7.93;;;4.37;;
37425;SDS011;23285;50.180;7.036;2022-08-21T06:46:31;7.47;;;3.37;;
37425;SDS011;23285;50.180;7.036;2022-08-21T06:49:16;7.67;;;3.40;;
37425;SDS011;23285;50.180;7.036;2022-08-21T06:52:01;4.63;;;3.13;;
37425;SDS011;23285;50.180;7.036;2022-08-21T06:54:46;9.83;;;3.90;;
37425;SDS011;23285;50.180;7.036;2022-08-21T06:57:32;8.63;;;3.27;;
37425;SDS011;23285;50.180;7.036;2022-08-21T07:00:17;7.80;;;2.97;;
37425;SDS011;23285;50.180;7.036;2022-08-21T07:03:02;10.67;;;3.13;;
37425;SDS011;23285;50.180;7.036;2022-08-21T07:05:47;10.80;;;3.03;;
37425;SDS011;23285;50.180;7.036;2022-08-21T07:08:32;9.50;;;3.30;;
37425;SDS011;23285;50.180;7.036;2022-08-21T07:11:19;7.53;;;2.90;;
37425;SDS011;23285;50.180;7.036;2022-08-21T07:14:06;8.90;;;3.20;;
37425;SDS011;23285;50.180;7.036;2022-08-21T07:16:51;7.37;;;2.93;;
37425;SDS011;23285;50.180;7.036;2022-08-21T07:19:36;4.20;;;2.40;;
37425;SDS011;23285;50.180;7.036;2022-08-21T07:22:21;4.83;;;2.13;;
37425;SDS011;23285;50.180;7.036;2022-08-21T07:25:07;15.70;;;3.43;;
37425;SDS011;23285;50.180;7.036;2022-08-21T07:27:52;8.00;;;3.17;;
37425;SDS011;23285;50.180;7.036;2022-08-21T07:30:38;8.10;;;3.20;;
37425;SDS011;23285;50.180;7.036;2022-08-21T07:33:24;11.13;;;3.73;;
37425;SDS011;23285;50.180;7.036;2022-08-21T07:36:10;12.07;;;3.27;;
37425;SDS011;23285;50.180;7.036;2022-08-21T07:38:55;12.40;;;3.37;;
37425;SDS011;23285;50.180;7.036;2022-08-21T07:41:41;7.13;;;3.70;;
37425;SDS011;23285;50.180;7.036;2022-08-21T07:44:26;9.87;;;2.77;;
37425;SDS011;23285;50.180;7.036;2022-08-21T07:47:11;9.97;;;2.63;;
37425;SDS011;23285;50.180;7.036;2022-08-21T07:49:56;8.67;;;2.93;;
37425;SDS011;23285;50.180;7.036;2022-08-21T07:52:41;7.23;;;2.97;;
37425;SDS011;23285;50.180;7.036;2022-08-21T07:55:27;6.90;;;2.80;;
37425;SDS011;23285;50.180;7.036;2022-08-21T07:58:12;12.63;;;2.97;;
37425;SDS011;23285;50.180;7.036;2022-08-21T08:00:58;8.17;;;2.70;;
37425;SDS011;23285;50.180;7.036;2022-08-21T08:03:44;8.17;;;2.90;;
37425;SDS011;23285;50.180;7.036;2022-08-21T08:06:29;8.30;;;3.30;;
37425;SDS011;23285;50.180;7.036;2022-08-21T08:09:14;9.10;;;2.70;;
37425;SDS011;23285;50.180;7.036;2022-08-21T08:12:01;9.23;;;2.83;;
37425;SDS011;23285;50.180;7.036;2022-08-21T08:14:45;6.73;;;2.70;;
37425;SDS011;23285;50.180;7.036;2022-08-21T08:17:31;9.07;;;3.00;;
37425;SDS011;23285;50.180;7.036;2022-08-21T08:20:16;7.50;;;2.43;;
37425;SDS011;23285;50.180;7.036;2022-08-21T08:23:02;6.80;;;2.87;;
37425;SDS011;23285;50.180;7.036;2022-08-21T08:25:47;8.07;;;3.10;;
37425;SDS011;23285;50.180;7.036;2022-08-21T08:28:33;4.73;;;2.70;;
37425;SDS011;23285;50.180;7.036;2022-08-21T08:31:18;5.63;;;2.57;;
37425;SDS011;23285;50.180;7.036;2022-08-21T08:34:03;4.97;;;2.40;;
37425;SDS011;23285;50.180;7.036;2022-08-21T08:36:48;6.23;;;2.80;;
37425;SDS011;23285;50.180;7.036;2022-08-21T08:39:33;10.67;;;2.80;;
37425;SDS011;23285;50.180;7.036;2022-08-21T08:42:27;7.17;;;2.80;;
37425;SDS011;23285;50.180;7.036;2022-08-21T08:45:18;5.57;;;2.80;;
37425;SDS011;23285;50.180;7.036;2022-08-21T08:48:09;6.60;;;2.80;;
37425;SDS011;23285;50.180;7.036;2022-08-21T08:50:57;7.43;;;2.87;;
37425;SDS011;23285;50.180;7.036;2022-08-21T08:54:07;9.60;;;2.73;;
37425;SDS011;23285;50.180;7.036;2022-08-21T08:56:53;5.67;;;2.87;;
37425;SDS011;23285;50.180;7.036;2022-08-21T08:59:41;7.37;;;2.90;;
37425;SDS011;23285;50.180;7.036;2022-08-21T09:02:43;5.30;;;2.13;;
37425;SDS011;23285;50.180;7.036;2022-08-21T09:05:40;6.03;;;2.50;;
37425;SDS011;23285;50.180;7.036;2022-08-21T09:14:36;4.57;;;2.30;;
37425;SDS011;23285;50.180;7.036;2022-08-21T09:24:02;3.73;;;2.13;;
37425;SDS011;23285;50.180;7.036;2022-08-21T09:27:21;7.00;;;2.43;;
37425;SDS011;23285;50.180;7.036;2022-08-21T09:30:07;5.37;;;2.33;;
37425;SDS011;23285;50.180;7.036;2022-08-21T09:32:54;4.83;;;1.70;;
37425;SDS011;23285;50.180;7.036;2022-08-21T09:35:53;5.97;;;2.37;;
37425;SDS011;23285;50.180;7.036;2022-08-21T09:38:39;4.27;;;2.10;;
37425;SDS011;23285;50.180;7.036;2022-08-21T09:41:26;5.60;;;2.77;;
37425;SDS011;23285;50.180;7.036;2022-08-21T09:44:13;4.83;;;2.30;;
37425;SDS011;23285;50.180;7.036;2022-08-21T09:47:11;5.70;;;2.40;;
37425;SDS011;23285;50.180;7.036;2022-08-21T09:50:06;8.33;;;2.43;;
37425;SDS011;23285;50.180;7.036;2022-08-21T09:52:58;3.30;;;1.80;;
37425;SDS011;23285;50.180;7.036;2022-08-21T09:55:52;6.70;;;2.33;;
37425;SDS011;23285;50.180;7.036;2022-08-21T09:59:00;5.90;;;2.10;;
37425;SDS011;23285;50.180;7.036;2022-08-21T10:01:48;4.93;;;2.20;;
37425;SDS011;23285;50.180;7.036;2022-08-21T10:04:35;6.67;;;2.40;;
37425;SDS011;23285;50.180;7.036;2022-08-21T10:07:21;9.67;;;3.10;;
37425;SDS011;23285;50.180;7.036;2022-08-21T10:10:12;9.33;;;2.70;;
37425;SDS011;23285;50.180;7.036;2022-08-21T10:19:01;4.53;;;2.43;;
37425;SDS011;23285;50.180;7.036;2022-08-21T10:25:17;7.40;;;2.43;;
37425;SDS011;23285;50.180;7.036;2022-08-21T10:31:32;6.93;;;2.40;;
37425;SDS011;23285;50.180;7.036;2022-08-21T10:35:12;7.03;;;2.63;;
37425;SDS011;23285;50.180;7.036;2022-08-21T10:38:16;4.93;;;2.30;;
37425;SDS011;23285;50.180;7.036;2022-08-21T10:41:11;6.13;;;2.80;;
37425;SDS011;23285;50.180;7.036;2022-08-21T10:44:35;3.77;;;2.10;;
37425;SDS011;23285;50.180;7.036;2022-08-21T10:47:33;6.97;;;2.53;;
37425;SDS011;23285;50.180;7.036;2022-08-21T10:53:50;6.53;;;2.57;;
37425;SDS011;23285;50.180;7.036;2022-08-21T10:56:41;7.17;;;2.33;;
37425;SDS011;23285;50.180;7.036;2022-08-21T10:59:31;6.73;;;2.23;;
37425;SDS011;23285;50.180;7.036;2022-08-21T11:02:32;5.20;;;2.20;;
37425;SDS011;23285;50.180;7.036;2022-08-21T11:05:38;4.40;;;1.87;;
37425;SDS011;23285;50.180;7.036;2022-08-21T11:11:20;3.97;;;2.33;;
37425;SDS011;23285;50.180;7.036;2022-08-21T11:17:10;6.60;;;2.13;;
37425;SDS011;23285;50.180;7.036;2022-08-21T11:23:03;3.23;;;1.97;;
37425;SDS011;23285;50.180;7.036;2022-08-21T11:25:58;4.80;;;2.27;;
37425;SDS011;23285;50.180;7.036;2022-08-21T11:28:52;5.50;;;2.17;;
37425;SDS011;23285;50.180;7.036;2022-08-21T11:52:38;4.33;;;1.90;;
37425;SDS011;23285;50.180;7.036;2022-08-21T11:55:32;5.83;;;2.50;;
37425;SDS011;23285;50.180;7.036;2022-08-21T11:58:32;5.70;;;2.17;;
37425;SDS011;23285;50.180;7.036;2022-08-21T12:01:24;5.20;;;2.47;;
37425;SDS011;23285;50.180;7.036;2022-08-21T12:10:17;6.30;;;1.80;;
37425;SDS011;23285;50.180;7.036;2022-08-21T12:13:07;3.60;;;2.30;;
37425;SDS011;23285;50.180;7.036;2022-08-21T12:16:14;2.50;;;1.93;;
37425;SDS011;23285;50.180;7.036;2022-08-21T12:19:12;4.90;;;1.87;;
37425;SDS011;23285;50.180;7.036;2022-08-21T12:22:15;4.20;;;1.80;;
37425;SDS011;23285;50.180;7.036;2022-08-21T12:25:08;5.20;;;2.13;;
37425;SDS011;23285;50.180;7.036;2022-08-21T12:28:02;5.33;;;2.00;;
37425;SDS011;23285;50.180;7.036;2022-08-21T12:30:52;3.73;;;1.90;;
37425;SDS011;23285;50.180;7.036;2022-08-21T12:33:38;3.97;;;2.00;;
37425;SDS011;23285;50.180;7.036;2022-08-21T12:36:39;3.00;;;1.77;;
37425;SDS011;23285;50.180;7.036;2022-08-21T12:39:26;4.20;;;1.93;;
37425;SDS011;23285;50.180;7.036;2022-08-21T12:42:20;6.57;;;2.50;;
37425;SDS011;23285;50.180;7.036;2022-08-21T12:45:19;3.77;;;1.97;;
37425;SDS011;23285;50.180;7.036;2022-08-21T12:54:00;7.63;;;2.00;;
37425;SDS011;23285;50.180;7.036;2022-08-21T12:56:54;6.07;;;2.03;;
37425;SDS011;23285;50.180;7.036;2022-08-21T12:59:41;8.57;;;2.03;;
37425;SDS011;23285;50.180;7.036;2022-08-21T13:02:33;2.83;;;2.00;;
37425;SDS011;23285;50.180;7.036;2022-08-21T13:05:33;12.83;;;2.90;;
37425;SDS011;23285;50.180;7.036;2022-08-21T13:08:19;5.83;;;2.00;;
37425;SDS011;23285;50.180;7.036;2022-08-21T13:11:07;6.87;;;2.00;;
37425;SDS011;23285;50.180;7.036;2022-08-21T13:13:52;6.93;;;2.20;;
37425;SDS011;23285;50.180;7.036;2022-08-21T13:16:38;4.10;;;2.00;;
37425;SDS011;23285;50.180;7.036;2022-08-21T13:19:23;2.60;;;1.73;;
37425;SDS011;23285;50.180;7.036;2022-08-21T13:22:13;3.13;;;1.47;;
37425;SDS011;23285;50.180;7.036;2022-08-21T13:25:01;3.17;;;1.63;;
37425;SDS011;23285;50.180;7.036;2022-08-21T13:31:02;3.10;;;1.53;;
37425;SDS011;23285;50.180;7.036;2022-08-21T13:33:51;3.60;;;2.00;;
37425;SDS011;23285;50.180;7.036;2022-08-21T13:36:39;5.23;;;1.80;;
37425;SDS011;23285;50.180;7.036;2022-08-21T13:39:26;5.97;;;2.00;;
37425;SDS011;23285;50.180;7.036;2022-08-21T13:42:11;4.70;;;1.70;;
37425;SDS011;23285;50.180;7.036;2022-08-21T13:44:57;3.83;;;2.20;;
37425;SDS011;23285;50.180;7.036;2022-08-21T13:47:42;4.40;;;1.90;;
37425;SDS011;23285;50.180;7.036;2022-08-21T13:50:31;8.90;;;2.27;;
37425;SDS011;23285;50.180;7.036;2022-08-21T13:53:34;5.07;;;2.33;;
37425;SDS011;23285;50.180;7.036;2022-08-21T13:56:40;2.53;;;1.67;;
37425;SDS011;23285;50.180;7.036;2022-08-21T13:59:28;4.07;;;1.90;;
37425;SDS011;23285;50.180;7.036;2022-08-21T14:02:16;5.70;;;2.00;;
37425;SDS011;23285;50.180;7.036;2022-08-21T14:05:04;4.17;;;1.90;;
37425;SDS011;23285;50.180;7.036;2022-08-21T14:07:50;5.13;;;1.97;;
37425;SDS011;23285;50.180;7.036;2022-08-21T14:10:42;3.90;;;1.90;;
37425;SDS011;23285;50.180;7.036;2022-08-21T14:13:48;5.60;;;2.00;;
37425;SDS011;23285;50.180;7.036;2022-08-21T14:16:44;2.50;;;1.60;;
37425;SDS011;23285;50.180;7.036;2022-08-21T14:19:43;3.70;;;1.80;;
37425;SDS011;23285;50.180;7.036;2022-08-21T14:28:19;3.07;;;1.90;;
37425;SDS011;23285;50.180;7.036;2022-08-21T14:31:19;2.80;;;1.90;;
37425;SDS011;23285;50.180;7.036;2022-08-21T14:34:05;4.17;;;1.87;;
37425;SDS011;23285;50.180;7.036;2022-08-21T14:36:51;2.37;;;1.47;;
37425;SDS011;23285;50.180;7.036;2022-08-21T14:39:36;3.10;;;1.70;;
37425;SDS011;23285;50.180;7.036;2022-08-21T14:42:21;4.07;;;1.60;;
37425;SDS011;23285;50.180;7.036;2022-08-21T14:45:16;4.13;;;2.00;;
37425;SDS011;23285;50.180;7.036;2022-08-21T14:48:05;3.43;;;1.90;;
37425;SDS011;23285;50.180;7.036;2022-08-21T14:50:52;2.80;;;1.70;;
37425;SDS011;23285;50.180;7.036;2022-08-21T14:53:37;3.93;;;2.00;;
37425;SDS011;23285;50.180;7.036;2022-08-21T14:56:22;5.47;;;1.50;;
37425;SDS011;23285;50.180;7.036;2022-08-21T14:59:09;5.27;;;1.63;;
37425;SDS011;23285;50.180;7.036;2022-08-21T15:01:54;5.30;;;1.73;;
37425;SDS011;23285;50.180;7.036;2022-08-21T15:04:40;4.03;;;1.77;;
37425;SDS011;23285;50.180;7.036;2022-08-21T15:07:26;4.10;;;2.07;;
37425;SDS011;23285;50.180;7.036;2022-08-21T15:10:11;5.30;;;1.67;;
37425;SDS011;23285;50.180;7.036;2022-08-21T15:12:56;4.00;;;1.70;;
37425;SDS011;23285;50.180;7.036;2022-08-21T15:15:42;5.30;;;1.87;;
37425;SDS011;23285;50.180;7.036;2022-08-21T15:18:29;3.73;;;1.90;;
37425;SDS011;23285;50.180;7.036;2022-08-21T15:21:15;2.43;;;1.70;;
37425;SDS011;23285;50.180;7.036;2022-08-21T15:24:00;3.53;;;1.53;;
37425;SDS011;23285;50.180;7.036;2022-08-21T15:26:45;2.97;;;1.70;;
37425;SDS011;23285;50.180;7.036;2022-08-21T15:29:31;3.37;;;1.80;;
37425;SDS011;23285;50.180;7.036;2022-08-21T15:32:24;3.50;;;1.67;;
37425;SDS011;23285;50.180;7.036;2022-08-21T15:35:12;2.70;;;1.93;;
37425;SDS011;23285;50.180;7.036;2022-08-21T15:37:57;3.33;;;2.10;;
37425;SDS011;23285;50.180;7.036;2022-08-21T15:40:42;4.53;;;2.20;;
37425;SDS011;23285;50.180;7.036;2022-08-21T15:43:29;3.27;;;1.80;;
37425;SDS011;23285;50.180;7.036;2022-08-21T15:46:17;3.10;;;1.97;;
37425;SDS011;23285;50.180;7.036;2022-08-21T15:49:03;3.87;;;2.00;;
37425;SDS011;23285;50.180;7.036;2022-08-21T15:51:49;3.67;;;2.07;;
37425;SDS011;23285;50.180;7.036;2022-08-21T15:54:34;2.73;;;1.50;;
37425;SDS011;23285;50.180;7.036;2022-08-21T15:57:22;4.20;;;2.03;;
37425;SDS011;23285;50.180;7.036;2022-08-21T16:00:14;4.70;;;2.40;;
37425;SDS011;23285;50.180;7.036;2022-08-21T16:03:02;3.47;;;1.73;;
37425;SDS011;23285;50.180;7.036;2022-08-21T16:05:48;4.03;;;1.77;;
37425;SDS011;23285;50.180;7.036;2022-08-21T16:08:36;5.20;;;2.03;;
37425;SDS011;23285;50.180;7.036;2022-08-21T16:11:21;3.70;;;1.90;;
37425;SDS011;23285;50.180;7.036;2022-08-21T16:14:06;3.63;;;2.00;;
37425;SDS011;23285;50.180;7.036;2022-08-21T16:16:52;4.10;;;1.87;;
37425;SDS011;23285;50.180;7.036;2022-08-21T16:19:37;5.90;;;2.17;;
37425;SDS011;23285;50.180;7.036;2022-08-21T16:22:23;5.00;;;2.13;;
37425;SDS011;23285;50.180;7.036;2022-08-21T16:25:08;2.67;;;1.80;;
37425;SDS011;23285;50.180;7.036;2022-08-21T16:27:54;3.90;;;1.80;;
37425;SDS011;23285;50.180;7.036;2022-08-21T16:30:44;4.03;;;2.20;;
37425;SDS011;23285;50.180;7.036;2022-08-21T16:36:17;3.70;;;2.30;;
37425;SDS011;23285;50.180;7.036;2022-08-21T16:39:02;4.43;;;2.10;;
37425;SDS011;23285;50.180;7.036;2022-08-21T16:41:47;3.77;;;1.87;;
37425;SDS011;23285;50.180;7.036;2022-08-21T16:44:34;4.83;;;2.00;;
37425;SDS011;23285;50.180;7.036;2022-08-21T16:47:19;3.70;;;1.63;;
37425;SDS011;23285;50.180;7.036;2022-08-21T16:50:05;4.40;;;1.80;;
37425;SDS011;23285;50.180;7.036;2022-08-21T16:52:51;2.97;;;1.83;;
37425;SDS011;23285;50.180;7.036;2022-08-21T16:55:36;4.23;;;2.07;;
37425;SDS011;23285;50.180;7.036;2022-08-21T16:58:41;3.17;;;1.70;;
37425;SDS011;23285;50.180;7.036;2022-08-21T17:01:32;3.73;;;2.07;;
37425;SDS011;23285;50.180;7.036;2022-08-21T17:04:18;4.57;;;1.83;;
37425;SDS011;23285;50.180;7.036;2022-08-21T17:07:04;3.33;;;1.80;;
37425;SDS011;23285;50.180;7.036;2022-08-21T17:09:49;4.37;;;2.00;;
37425;SDS011;23285;50.180;7.036;2022-08-21T17:12:35;5.37;;;1.70;;
37425;SDS011;23285;50.180;7.036;2022-08-21T17:15:22;5.07;;;2.20;;
37425;SDS011;23285;50.180;7.036;2022-08-21T17:18:12;3.83;;;1.90;;
37425;SDS011;23285;50.180;7.036;2022-08-21T17:20:59;2.30;;;1.60;;
37425;SDS011;23285;50.180;7.036;2022-08-21T17:23:44;3.70;;;1.93;;
37425;SDS011;23285;50.180;7.036;2022-08-21T17:26:30;3.50;;;1.53;;
37425;SDS011;23285;50.180;7.036;2022-08-21T17:29:15;4.00;;;2.00;;
37425;SDS011;23285;50.180;7.036;2022-08-21T17:32:06;3.93;;;1.70;;
37425;SDS011;23285;50.180;7.036;2022-08-21T17:34:53;2.87;;;1.47;;
37425;SDS011;23285;50.180;7.036;2022-08-21T17:37:39;6.33;;;1.90;;
37425;SDS011;23285;50.180;7.036;2022-08-21T17:40:24;4.57;;;1.97;;
37425;SDS011;23285;50.180;7.036;2022-08-21T17:43:09;7.23;;;2.10;;
37425;SDS011;23285;50.180;7.036;2022-08-21T17:45:57;3.90;;;1.67;;
37425;SDS011;23285;50.180;7.036;2022-08-21T17:48:43;4.50;;;2.10;;
37425;SDS011;23285;50.180;7.036;2022-08-21T17:51:28;3.40;;;1.70;;
37425;SDS011;23285;50.180;7.036;2022-08-21T17:54:13;2.57;;;1.70;;
37425;SDS011;23285;50.180;7.036;2022-08-21T17:56:59;3.33;;;1.97;;
37425;SDS011;23285;50.180;7.036;2022-08-21T17:59:44;5.20;;;1.87;;
37425;SDS011;23285;50.180;7.036;2022-08-21T18:02:29;4.10;;;2.20;;
37425;SDS011;23285;50.180;7.036;2022-08-21T18:05:15;4.20;;;1.90;;
37425;SDS011;23285;50.180;7.036;2022-08-21T18:08:00;3.57;;;1.87;;
37425;SDS011;23285;50.180;7.036;2022-08-21T18:10:46;5.10;;;2.20;;
37425;SDS011;23285;50.180;7.036;2022-08-21T18:13:34;4.30;;;1.60;;
37425;SDS011;23285;50.180;7.036;2022-08-21T18:16:21;3.60;;;1.80;;
37425;SDS011;23285;50.180;7.036;2022-08-21T18:19:07;3.77;;;1.70;;